Time;durP1;ratioP1;P1;durP2;ratioP2;P2;SDS_P1;SDS_P2;PMS_P1;PMS_P2;Temp;Humidity;BMP_temperature;BMP_pressure;BME280_temperature;BME280_humidity;BME280_pressure;Samples;Min_cycle;Max_cycle;Signal;HPM_P1;HPM_P2
2023/10/07 00:01:02;;;;;;;15.55;4.57;;;17.50;99.90;;;;;;4930027;28;20575;-63
2023/10/07 00:03:29;;;;;;;16.35;4.53;;;17.50;99.90;;;;;;4929132;28;20677;-63
2023/10/07 00:06:00;;;;;;;19.65;4.45;;;17.50;99.90;;;;;;4902072;28;20129;-63
2023/10/07 00:08:27;;;;;;;24.73;5.60;;;17.50;99.90;;;;;;4929954;28;20039;-63
2023/10/07 00:10:58;;;;;;;20.30;5.10;;;17.50;99.90;;;;;;4906502;28;20039;-62
2023/10/07 00:13:31;;;;;;;18.45;4.57;;;17.50;99.90;;;;;;4925804;28;20267;-63
2023/10/07 00:15:59;;;;;;;15.60;4.45;;;17.50;99.90;;;;;;4906332;28;20499;-63
2023/10/07 00:18:25;;;;;;;17.67;5.00;;;17.50;99.90;;;;;;4935815;28;20047;-62
2023/10/07 00:20:55;;;;;;;15.88;4.38;;;17.60;99.90;;;;;;4925505;28;20087;-63
2023/10/07 00:23:22;;;;;;;17.40;4.47;;;17.60;99.90;;;;;;4927506;28;21628;-63
2023/10/07 00:25:53;;;;;;;17.42;4.50;;;17.60;99.90;;;;;;4912323;28;20039;-63
2023/10/07 00:28:32;;;;;;;15.60;4.75;;;17.60;99.90;;;;;;4911691;28;20043;-63
2023/10/07 00:31:03;;;;;;;17.17;4.10;;;17.60;99.90;;;;;;4944183;28;20070;-63
2023/10/07 00:33:30;;;;;;;16.25;4.35;;;17.60;99.90;;;;;;4930079;28;20075;-62
2023/10/07 00:36:02;;;;;;;18.77;4.50;;;17.60;99.90;;;;;;4929194;28;20090;-63
2023/10/07 00:38:37;;;;;;;15.95;4.50;;;17.60;99.90;;;;;;4940485;28;20601;-62
2023/10/07 00:41:04;;;;;;;18.27;4.45;;;17.60;99.90;;;;;;4920915;28;20051;-63
2023/10/07 00:43:32;;;;;;;15.80;4.15;;;17.60;99.90;;;;;;4919240;28;20043;-62
2023/10/07 00:46:10;;;;;;;19.00;4.60;;;17.60;99.90;;;;;;4916061;29;20031;-62
2023/10/07 00:48:51;;;;;;;17.75;4.38;;;17.60;99.90;;;;;;4930504;28;20050;-62
2023/10/07 00:51:24;;;;;;;17.50;4.15;;;17.60;99.90;;;;;;4907031;29;20062;-63
2023/10/07 00:54:00;;;;;;;;;;;17.60;99.90;;;;;;4927593;28;20046;-62
2023/10/07 00:56:33;;;;;;;19.85;4.50;;;17.50;99.90;;;;;;4930732;28;19922;-63
2023/10/07 00:59:07;;;;;;;20.40;4.38;;;17.50;99.90;;;;;;4921749;28;20071;-62
2023/10/07 01:01:36;;;;;;;17.40;4.90;;;17.50;99.90;;;;;;4929092;28;20526;-62
2023/10/07 01:04:13;;;;;;;21.13;4.68;;;17.50;99.90;;;;;;4924855;28;20519;-62
2023/10/07 01:06:39;;;;;;;16.77;4.65;;;17.50;99.90;;;;;;4925702;28;20054;-63
2023/10/07 01:09:14;;;;;;;11.80;4.13;;;17.40;99.90;;;;;;4930483;28;20051;-62
2023/10/07 01:11:44;;;;;;;13.05;4.60;;;17.40;99.90;;;;;;4908827;28;20043;-62
2023/10/07 01:14:12;;;;;;;13.82;4.20;;;17.40;99.90;;;;;;4911554;28;20490;-62
2023/10/07 01:16:41;;;;;;;13.25;4.43;;;17.40;99.90;;;;;;4903626;28;20047;-63
2023/10/07 01:21:50;;;;;;;16.27;4.72;;;17.40;99.90;;;;;;4919902;28;20051;-63
2023/10/07 01:24:23;;;;;;;20.00;4.40;;;17.40;99.90;;;;;;4943130;28;20079;-62
2023/10/07 01:26:49;;;;;;;15.38;4.05;;;17.40;99.90;;;;;;4891107;29;20035;-62
2023/10/07 01:29:15;;;;;;;12.82;3.58;;;17.30;99.90;;;;;;4910888;29;20048;-63
2023/10/07 01:31:59;;;;;;;16.27;4.38;;;17.40;99.90;;;;;;4908979;29;20074;-62
2023/10/07 01:34:29;;;;;;;12.10;4.07;;;17.30;99.90;;;;;;4929877;28;20051;-63
2023/10/07 01:37:00;;;;;;;13.23;4.13;;;17.40;99.90;;;;;;4920315;28;20063;-61
2023/10/07 01:39:29;;;;;;;13.50;3.58;;;17.40;99.90;;;;;;4896404;28;20054;-63
2023/10/07 01:41:56;;;;;;;17.08;4.18;;;17.30;99.90;;;;;;4925524;28;20035;-63
2023/10/07 01:44:24;;;;;;;20.27;4.95;;;17.40;99.90;;;;;;4923293;28;20048;-62
2023/10/07 01:46:55;;;;;;;12.52;4.00;;;17.30;99.90;;;;;;4919351;28;20051;-62
2023/10/07 01:49:22;;;;;;;17.85;4.10;;;17.40;99.90;;;;;;4919454;28;20046;-62
2023/10/07 01:51:52;;;;;;;17.63;4.45;;;17.40;99.90;;;;;;4921726;28;20499;-62
2023/10/07 01:54:20;;;;;;;24.98;4.43;;;17.30;99.90;;;;;;4920511;28;20779;-63
2023/10/07 01:56:47;;;;;;;14.57;4.07;;;17.30;99.90;;;;;;4923535;28;20039;-62
2023/10/07 02:01:43;;;;;;;13.82;3.78;;;17.40;99.90;;;;;;4940364;28;20051;-63
2023/10/07 02:04:18;;;;;;;15.82;4.20;;;17.40;99.90;;;;;;4923183;28;20047;-62
2023/10/07 02:06:51;;;;;;;16.77;4.25;;;17.40;99.90;;;;;;4908224;28;20039;-63
2023/10/07 02:09:25;;;;;;;14.65;3.80;;;17.40;99.90;;;;;;4912255;29;22209;-63
2023/10/07 02:12:01;;;;;;;20.92;4.18;;;17.40;99.90;;;;;;4927633;28;20047;-63
2023/10/07 02:14:28;;;;;;;18.35;4.07;;;17.50;99.90;;;;;;4923502;28;20594;-62
2023/10/07 02:16:56;;;;;;;16.92;4.13;;;17.50;99.90;;;;;;4922181;28;20170;-63
2023/10/07 02:19:57;;;;;;;11.48;3.33;;;17.50;99.90;;;;;;4908183;28;20121;-62
2023/10/07 02:22:22;;;;;;;15.98;3.97;;;17.50;99.90;;;;;;4908676;29;20388;-62
2023/10/07 02:25:02;;;;;;;15.18;4.85;;;17.50;99.90;;;;;;4930712;29;20082;-63
2023/10/07 02:27:34;;;;;;;11.73;3.38;;;17.50;99.90;;;;;;4914171;29;20126;-62
2023/10/07 02:29:59;;;;;;;15.27;3.73;;;17.50;99.90;;;;;;4925572;28;20064;-62
2023/10/07 02:32:25;;;;;;;18.25;3.97;;;17.50;99.90;;;;;;4932839;28;20047;-63
2023/10/07 02:34:51;;;;;;;14.35;4.15;;;17.60;99.90;;;;;;4928544;28;20586;-63
2023/10/07 02:37:38;;;;;;;12.60;3.63;;;17.60;99.90;;;;;;4946050;28;20130;-62
2023/10/07 02:43:10;;;;;;;21.83;4.15;;;17.60;99.90;;;;;;4885047;29;20503;-62
2023/10/07 02:45:39;;;;;;;13.95;4.43;;;17.60;99.90;;;;;;4874249;29;20048;-62
2023/10/07 02:48:10;;;;;;;15.60;3.83;;;17.60;99.90;;;;;;4907950;28;20062;-63
2023/10/07 02:50:42;;;;;;;19.55;3.55;;;17.60;99.90;;;;;;4943114;28;20145;-62
2023/10/07 02:53:16;;;;;;;15.48;3.53;;;17.60;99.90;;;;;;4913882;28;20046;-63
2023/10/07 02:55:54;;;;;;;16.80;3.90;;;17.60;99.90;;;;;;4941695;28;20702;-62
2023/10/07 02:58:48;;;;;;;11.57;3.90;;;17.60;99.90;;;;;;4929015;28;20154;-62
2023/10/07 03:01:18;;;;;;;15.73;4.10;;;17.60;99.90;;;;;;4905891;28;20620;-62
2023/10/07 03:03:48;;;;;;;13.23;4.18;;;17.60;99.90;;;;;;4931403;28;20114;-62
2023/10/07 03:06:17;;;;;;;16.15;3.85;;;17.60;99.90;;;;;;4919121;28;20038;-62
2023/10/07 03:08:50;;;;;;;18.17;3.92;;;17.60;99.90;;;;;;4927082;28;20094;-62
2023/10/07 03:11:23;;;;;;;16.67;3.88;;;17.60;99.90;;;;;;4925304;28;20411;-62
2023/10/07 03:13:56;;;;;;;17.20;3.85;;;17.60;99.90;;;;;;4925578;28;20031;-62
2023/10/07 03:19:30;;;;;;;16.10;3.90;;;17.60;99.90;;;;;;4913044;29;20051;-62
2023/10/07 03:24:10;;;;;;;21.63;4.72;;;17.60;99.90;;;;;;4922917;28;20053;-63
2023/10/07 03:26:38;;;;;;;14.95;3.72;;;17.60;99.90;;;;;;4943551;28;20491;-63
2023/10/07 03:29:05;;;;;;;15.50;3.88;;;17.60;99.90;;;;;;4931752;28;20039;-63
2023/10/07 03:31:35;;;;;;;20.75;3.88;;;17.60;99.90;;;;;;4942802;28;20463;-63
2023/10/07 03:34:07;;;;;;;15.50;3.47;;;17.60;99.90;;;;;;4913463;29;20043;-63
2023/10/07 03:36:46;;;;;;;;;;;17.60;99.90;;;;;;4958501;28;20606;-62
2023/10/07 03:41:55;;;;;;;17.60;3.65;;;17.60;99.90;;;;;;4940446;28;20054;-63
2023/10/07 03:44:23;;;;;;;15.55;3.40;;;17.60;99.90;;;;;;4953167;28;20042;-63
2023/10/07 03:46:54;;;;;;;13.85;3.60;;;17.70;99.90;;;;;;4946912;28;20057;-62
2023/10/07 03:49:23;;;;;;;16.67;4.40;;;17.60;99.90;;;;;;4930233;28;20646;-63
2023/10/07 03:52:37;;;;;;;16.23;4.30;;;17.70;99.90;;;;;;4963150;28;21704;-62
2023/10/07 03:54:40;;;;;;;17.65;3.80;;;17.60;99.90;;;;;;4921514;28;20058;-62
2023/10/07 03:57:07;;;;;;;15.15;3.85;;;17.60;99.90;;;;;;4942044;28;20054;-62
2023/10/07 03:59:36;;;;;;;20.40;4.15;;;17.60;99.90;;;;;;4948084;28;20097;-63
2023/10/07 04:05:00;;;;;;;17.42;3.92;;;17.60;99.90;;;;;;4948415;28;20050;-63
2023/10/07 04:07:30;;;;;;;15.10;4.10;;;17.60;99.90;;;;;;4959135;28;20042;-62
2023/10/07 04:10:12;;;;;;;21.58;5.10;;;17.60;99.90;;;;;;4913576;28;20149;-63
2023/10/07 04:12:39;;;;;;;11.63;3.43;;;17.60;99.90;;;;;;4946802;28;24569;-62
2023/10/07 04:15:10;;;;;;;14.77;4.07;;;17.60;99.90;;;;;;4930146;28;20321;-63
2023/10/07 04:17:38;;;;;;;12.70;3.60;;;17.60;99.90;;;;;;4932010;28;24476;-63
2023/10/07 04:20:18;;;;;;;15.48;3.70;;;17.60;99.90;;;;;;4924622;28;20666;-61
2023/10/07 04:22:45;;;;;;;14.95;3.83;;;17.60;99.90;;;;;;4939028;28;20731;-63
2023/10/07 04:25:17;;;;;;;15.15;4.10;;;17.60;99.90;;;;;;4945831;28;20046;-63
2023/10/07 04:27:43;;;;;;;19.50;4.05;;;17.60;99.90;;;;;;4947851;28;20042;-63
2023/10/07 04:30:13;;;;;;;15.65;4.13;;;17.60;99.90;;;;;;4946690;28;20039;-63
2023/10/07 04:32:52;;;;;;;22.63;4.20;;;17.60;99.90;;;;;;4958354;28;20129;-62
2023/10/07 04:35:20;;;;;;;15.80;4.15;;;17.60;99.90;;;;;;4942884;28;20514;-62
2023/10/07 04:37:54;;;;;;;13.35;3.75;;;17.60;99.90;;;;;;4941523;28;20080;-62
2023/10/07 04:43:25;;;;;;;19.17;4.63;;;17.50;99.90;;;;;;4962017;28;20051;-63
2023/10/07 04:45:50;;;;;;;17.55;4.72;;;17.60;99.90;;;;;;4938088;28;20554;-63
2023/10/07 04:48:42;;;;;;;21.70;4.67;;;17.50;99.90;;;;;;4966982;28;20808;-62
2023/10/07 04:51:12;;;;;;;18.10;3.88;;;17.60;99.90;;;;;;4938070;28;20058;-62
2023/10/07 04:53:39;;;;;;;12.75;3.95;;;17.60;99.90;;;;;;4940432;28;20066;-62
2023/10/07 04:56:10;;;;;;;18.25;4.10;;;17.50;99.90;;;;;;4955009;28;20070;-63
2023/10/07 04:58:40;;;;;;;17.80;3.90;;;17.50;99.90;;;;;;4941946;28;20051;-62
2023/10/07 05:01:22;;;;;;;16.90;4.35;;;17.50;99.90;;;;;;4957283;28;20160;-62
2023/10/07 05:03:55;;;;;;;19.25;4.72;;;17.50;99.90;;;;;;4929835;28;20039;-63
2023/10/07 05:06:22;;;;;;;19.05;4.70;;;17.60;99.90;;;;;;4943482;28;20117;-63
2023/10/07 05:08:48;;;;;;;14.10;3.70;;;17.60;99.90;;;;;;4949776;28;20118;-63
2023/10/07 05:11:17;;;;;;;14.07;3.80;;;17.60;99.90;;;;;;4927696;28;20035;-63
2023/10/07 05:13:45;;;;;;;14.50;3.50;;;17.50;99.90;;;;;;4943824;28;20050;-63
2023/10/07 05:16:14;;;;;;;16.17;3.78;;;17.60;99.90;;;;;;4952856;28;20122;-62
2023/10/07 05:18:41;;;;;;;14.77;3.67;;;17.60;99.90;;;;;;4949459;28;21844;-63
2023/10/07 05:21:07;;;;;;;18.80;4.45;;;17.60;99.90;;;;;;4935217;28;20547;-63
2023/10/07 05:23:34;;;;;;;18.55;4.10;;;17.50;99.90;;;;;;4950815;28;20049;-63
2023/10/07 05:26:08;;;;;;;16.08;4.70;;;17.50;99.90;;;;;;4932044;28;20047;-62
2023/10/07 05:28:35;;;;;;;22.20;4.55;;;17.50;99.90;;;;;;4937834;28;20066;-63
2023/10/07 05:31:05;;;;;;;14.07;4.30;;;17.60;99.90;;;;;;4974427;28;20046;-62
2023/10/07 05:33:35;;;;;;;19.05;3.90;;;17.60;99.90;;;;;;4935975;28;20058;-62
2023/10/07 05:36:13;;;;;;;14.82;4.28;;;17.50;99.90;;;;;;4952914;28;20146;-62
2023/10/07 05:38:44;;;;;;;21.95;4.00;;;17.50;99.90;;;;;;4956270;28;20550;-62
2023/10/07 05:41:14;;;;;;;17.35;4.05;;;17.60;99.90;;;;;;4943262;28;20383;-61
2023/10/07 05:43:48;;;;;;;17.25;4.40;;;17.60;99.90;;;;;;4957410;28;20050;-61
2023/10/07 05:46:19;;;;;;;14.30;3.90;;;17.50;99.90;;;;;;4962973;28;20066;-61
2023/10/07 05:48:45;;;;;;;17.77;3.97;;;17.60;99.90;;;;;;4958651;28;20039;-61
2023/10/07 05:51:11;;;;;;;15.40;4.38;;;17.50;99.90;;;;;;4937376;28;20086;-61
2023/10/07 05:53:39;;;;;;;19.98;3.63;;;17.50;99.90;;;;;;4959123;28;20473;-61
2023/10/07 05:56:06;;;;;;;15.82;4.03;;;17.50;99.90;;;;;;4954121;28;20053;-61
2023/10/07 05:58:43;;;;;;;13.57;4.60;;;17.50;99.90;;;;;;4949462;28;20090;-62
2023/10/07 06:01:11;;;;;;;15.90;4.22;;;17.50;99.90;;;;;;4968077;28;20185;-61
2023/10/07 06:03:37;;;;;;;13.90;3.55;;;17.50;99.90;;;;;;4959830;28;20091;-61
2023/10/07 06:06:04;;;;;;;18.00;3.60;;;17.40;99.90;;;;;;4948446;28;20043;-61
2023/10/07 06:08:32;;;;;;;13.45;3.65;;;17.50;99.90;;;;;;4962480;28;20045;-60
2023/10/07 06:10:59;;;;;;;15.85;3.30;;;17.40;99.90;;;;;;4957143;28;20043;-62
2023/10/07 06:13:29;;;;;;;11.68;3.42;;;17.40;99.90;;;;;;4942651;28;20070;-60
2023/10/07 06:15:58;;;;;;;13.50;3.17;;;17.30;99.90;;;;;;4955673;28;20039;-62
2023/10/07 06:18:25;;;;;;;11.43;3.15;;;17.30;99.90;;;;;;4952656;28;20398;-60
2023/10/07 06:20:52;;;;;;;20.20;4.28;;;17.30;99.90;;;;;;4937575;28;20133;-62
2023/10/07 06:23:19;;;;;;;14.15;3.33;;;17.30;99.90;;;;;;4956570;28;20592;-62
2023/10/07 06:25:49;;;;;;;16.23;3.40;;;17.30;99.90;;;;;;4940404;28;20945;-62
2023/10/07 06:31:13;;;;;;;11.30;3.30;;;17.30;99.90;;;;;;4949132;28;20057;-61
2023/10/07 06:33:42;;;;;;;16.17;3.63;;;17.30;99.90;;;;;;4950254;28;20050;-60
2023/10/07 06:36:10;;;;;;;11.50;3.38;;;17.30;99.90;;;;;;4950010;28;20145;-61
2023/10/07 06:38:38;;;;;;;17.10;3.80;;;17.30;99.90;;;;;;4942504;28;20447;-61
2023/10/07 06:41:09;;;;;;;17.98;3.88;;;17.20;99.90;;;;;;4943850;28;20058;-62
2023/10/07 06:43:42;;;;;;;17.88;3.80;;;17.20;99.90;;;;;;4944585;28;20051;-61
2023/10/07 06:46:11;;;;;;;13.18;3.88;;;17.30;99.90;;;;;;4940405;28;20035;-61
2023/10/07 06:48:40;;;;;;;15.60;3.35;;;17.20;99.90;;;;;;4942488;28;20093;-61
2023/10/07 06:51:10;;;;;;;16.80;3.50;;;17.30;99.90;;;;;;4942546;28;20047;-60
2023/10/07 06:53:42;;;;;;;12.57;3.72;;;17.30;99.90;;;;;;4943378;28;21895;-61
2023/10/07 06:56:21;;;;;;;15.35;4.00;;;17.30;99.90;;;;;;4935822;28;20063;-61
2023/10/07 06:58:53;;;;;;;17.23;4.20;;;17.30;99.90;;;;;;4935888;28;20047;-61
2023/10/07 07:04:19;;;;;;;13.38;3.45;;;17.30;99.90;;;;;;4936108;28;20134;-60
2023/10/07 07:06:46;;;;;;;11.07;3.20;;;17.30;99.90;;;;;;4930218;28;20059;-61
2023/10/07 07:12:04;;;;;;;15.75;3.58;;;17.30;99.90;;;;;;4924388;28;20055;-61
2023/10/07 07:14:33;;;;;;;11.75;3.30;;;17.30;99.90;;;;;;4936737;28;20138;-61
2023/10/07 07:22:33;;;;;;;18.23;3.85;;;17.40;99.90;;;;;;4938322;28;20055;-62
2023/10/07 07:25:04;;;;;;;19.15;3.63;;;17.40;99.90;;;;;;4938787;28;20066;-61
2023/10/07 07:27:34;;;;;;;13.45;3.80;;;17.40;99.90;;;;;;4931450;28;20621;-61
2023/10/07 07:30:09;;;;;;;11.90;3.38;;;17.40;99.90;;;;;;4936452;28;20043;-61
2023/10/07 07:32:37;;;;;;;12.32;2.83;;;17.40;99.90;;;;;;4942099;28;20047;-62
2023/10/07 07:35:04;;;;;;;20.70;3.90;;;17.40;99.90;;;;;;4945368;28;20503;-62
2023/10/07 07:37:33;;;;;;;13.98;3.67;;;17.50;99.90;;;;;;4959180;28;20431;-62
2023/10/07 07:40:40;;;;;;;11.15;3.10;;;17.50;99.90;;;;;;4963594;28;20038;-61
2023/10/07 07:42:56;;;;;;;12.45;3.58;;;17.50;99.90;;;;;;4961834;28;20112;-61
2023/10/07 07:45:26;;;;;;;14.43;3.63;;;17.50;99.90;;;;;;4949870;28;20043;-61
2023/10/07 07:47:55;;;;;;;10.15;3.53;;;17.60;99.90;;;;;;4962948;28;20094;-62
2023/10/07 07:50:21;;;;;;;15.50;3.65;;;17.60;99.90;;;;;;4956912;28;20043;-62
2023/10/07 07:52:51;;;;;;;13.63;3.35;;;17.60;99.90;;;;;;4939547;28;20057;-62
2023/10/07 07:55:17;;;;;;;14.35;3.85;;;17.60;99.90;;;;;;4974919;28;20109;-61
2023/10/07 07:57:46;;;;;;;13.32;3.50;;;17.70;99.90;;;;;;4961468;28;20439;-61
2023/10/07 08:00:20;;;;;;;13.43;3.58;;;17.80;99.90;;;;;;4944227;28;20043;-61
2023/10/07 08:02:49;;;;;;;12.90;3.88;;;17.80;99.90;;;;;;4961896;28;20046;-61
2023/10/07 08:05:18;;;;;;;12.18;3.75;;;17.90;99.90;;;;;;4962719;28;20472;-61
2023/10/07 08:07:45;;;;;;;16.02;4.03;;;17.90;99.90;;;;;;4963423;28;20117;-61
2023/10/07 08:10:11;;;;;;;11.68;3.88;;;17.90;99.90;;;;;;4952223;28;20043;-61
2023/10/07 08:12:37;;;;;;;13.45;3.97;;;17.90;99.90;;;;;;4949521;28;20050;-61
2023/10/07 08:15:38;;;;;;;15.10;4.03;;;18.00;99.90;;;;;;4953295;28;20134;-61
2023/10/07 08:17:52;;;;;;;10.63;3.30;;;18.00;99.90;;;;;;4952719;28;20042;-61
2023/10/07 08:20:34;;;;;;;14.85;3.80;;;18.00;99.90;;;;;;4950768;28;20046;-62
2023/10/07 08:23:07;;;;;;;16.77;4.00;;;18.00;99.90;;;;;;4946940;28;20134;-61
2023/10/07 08:25:49;;;;;;;13.10;3.85;;;18.00;99.90;;;;;;4942770;28;20252;-62
2023/10/07 08:28:18;;;;;;;11.73;3.53;;;18.10;99.90;;;;;;4959848;28;20058;-61
2023/10/07 08:30:46;;;;;;;16.02;4.22;;;18.10;99.90;;;;;;4960324;28;20381;-62
2023/10/07 08:33:17;;;;;;;14.50;4.30;;;18.10;99.90;;;;;;4961649;28;20050;-62
2023/10/07 08:35:47;;;;;;;12.25;3.70;;;18.10;99.90;;;;;;4953668;28;20508;-62
2023/10/07 08:38:37;;;;;;;11.32;3.45;;;18.10;99.90;;;;;;4942163;28;20477;-61
2023/10/07 08:41:04;;;;;;;12.30;3.60;;;18.10;99.90;;;;;;4944126;28;20126;-61
2023/10/07 08:43:37;;;;;;;14.10;3.50;;;18.10;99.90;;;;;;4934024;28;20453;-61
2023/10/07 08:46:09;;;;;;;11.27;3.55;;;18.20;99.90;;;;;;4946754;28;20047;-61
2023/10/07 08:48:38;;;;;;;12.20;3.88;;;18.20;99.90;;;;;;4942699;28;20050;-61
2023/10/07 08:51:14;;;;;;;11.32;3.47;;;18.30;99.90;;;;;;4942147;28;20047;-61
2023/10/07 08:53:41;;;;;;;17.23;4.20;;;18.30;99.90;;;;;;4922672;28;21096;-62
2023/10/07 08:56:11;;;;;;;14.55;4.40;;;18.30;99.90;;;;;;4941266;28;20066;-62
2023/10/07 08:58:41;;;;;;;15.07;3.83;;;18.30;99.90;;;;;;4945222;28;20106;-61
2023/10/07 09:01:17;;;;;;;14.65;4.18;;;18.30;99.90;;;;;;4941987;28;20043;-61
2023/10/07 09:03:50;;;;;;;14.65;4.20;;;18.30;99.90;;;;;;4930712;28;20043;-61
2023/10/07 09:06:16;;;;;;;14.73;4.32;;;18.30;99.90;;;;;;4942556;28;20047;-61
2023/10/07 09:08:46;;;;;;;18.27;4.45;;;18.30;99.90;;;;;;4924637;28;20105;-61
2023/10/07 09:11:19;;;;;;;18.88;4.03;;;18.30;99.90;;;;;;4940569;29;20590;-60
2023/10/07 09:13:47;;;;;;;17.08;4.88;;;18.30;99.90;;;;;;4938396;28;20106;-62
2023/10/07 09:16:13;;;;;;;13.60;4.40;;;18.30;99.90;;;;;;4937416;28;20069;-61
2023/10/07 09:18:41;;;;;;;13.25;4.35;;;18.40;99.90;;;;;;4950100;28;20039;-62
2023/10/07 09:21:19;;;;;;;17.27;4.05;;;18.40;99.90;;;;;;4939663;28;20114;-61
2023/10/07 09:23:59;;;;;;;15.27;4.05;;;18.40;99.90;;;;;;4925418;29;20078;-62
2023/10/07 09:26:36;;;;;;;12.70;3.88;;;18.40;99.90;;;;;;4940213;28;20072;-61
2023/10/07 09:29:15;;;;;;;19.08;4.82;;;18.40;99.90;;;;;;4941584;28;20499;-61
2023/10/07 09:31:50;;;;;;;19.33;4.25;;;18.40;99.90;;;;;;4946113;28;20391;-62
2023/10/07 09:34:30;;;;;;;16.67;4.22;;;18.40;99.90;;;;;;4940925;28;20118;-62
2023/10/07 09:37:08;;;;;;;12.90;4.10;;;18.40;99.90;;;;;;4931321;28;20055;-61
2023/10/07 09:39:43;;;;;;;15.30;4.47;;;18.40;99.90;;;;;;4946203;28;20051;-62
2023/10/07 09:42:26;;;;;;;20.70;5.40;;;18.40;99.90;;;;;;4949909;28;20451;-61
2023/10/07 09:44:55;;;;;;;;;;;18.40;99.90;;;;;;4946086;28;20476;-62
2023/10/07 09:47:22;;;;;;;16.90;4.85;;;18.40;99.90;;;;;;4928608;29;20028;-62
2023/10/07 09:49:50;;;;;;;17.42;5.10;;;18.40;99.90;;;;;;4948222;28;20086;-62
2023/10/07 09:52:28;;;;;;;16.05;4.53;;;18.40;99.90;;;;;;4941846;28;20098;-61
2023/10/07 09:55:20;;;;;;;17.13;4.60;;;18.40;99.90;;;;;;4945901;28;20043;-62
2023/10/07 09:58:00;;;;;;;20.25;4.32;;;18.40;99.90;;;;;;4945467;28;20062;-61
2023/10/07 10:01:05;;;;;;;17.27;5.28;;;18.40;99.90;;;;;;4944217;28;20098;-61
2023/10/07 10:04:06;;;;;;;16.33;4.97;;;18.40;99.90;;;;;;4941866;28;20192;-61
2023/10/07 10:07:25;;;;;;;16.85;4.70;;;18.40;99.90;;;;;;4928704;28;20476;-61
2023/10/07 10:13:16;;;;;;;13.75;5.05;;;18.40;99.90;;;;;;4915700;29;20059;-62
2023/10/07 10:18:31;;;;;;;15.48;4.93;;;18.60;99.90;;;;;;4943656;28;20051;-61
2023/10/07 10:21:09;;;;;;;17.35;4.97;;;18.60;99.90;;;;;;4945295;28;20108;-62
2023/10/07 10:23:39;;;;;;;15.05;4.60;;;18.60;99.90;;;;;;4945906;28;20467;-60
2023/10/07 10:26:15;;;;;;;14.25;4.60;;;18.60;99.90;;;;;;4924554;29;20079;-62
2023/10/07 10:28:42;;;;;;;17.38;4.75;;;18.70;99.90;;;;;;4919228;29;20094;-61
2023/10/07 10:31:19;;;;;;;15.27;4.43;;;18.70;99.90;;;;;;4934719;28;20054;-62
2023/10/07 10:33:49;;;;;;;15.10;4.53;;;18.70;99.90;;;;;;4922779;29;20075;-61
2023/10/07 10:36:21;;;;;;;19.02;4.57;;;18.70;99.90;;;;;;4938368;28;20121;-62
2023/10/07 10:38:47;;;;;;;16.83;5.13;;;18.80;99.90;;;;;;4923557;28;20771;-62
2023/10/07 10:41:15;;;;;;;14.52;4.15;;;18.80;99.90;;;;;;4942523;28;20078;-62
2023/10/07 10:43:41;;;;;;;14.40;4.32;;;18.80;99.90;;;;;;4928655;28;20109;-62
2023/10/07 10:46:08;;;;;;;18.70;4.38;;;18.90;99.90;;;;;;4944730;28;20585;-62
2023/10/07 10:48:34;;;;;;;11.50;3.95;;;18.90;99.90;;;;;;4959112;28;20114;-62
2023/10/07 10:51:07;;;;;;;19.02;5.07;;;18.90;99.90;;;;;;4944283;28;20098;-61
2023/10/07 10:53:40;;;;;;;13.18;4.38;;;19.00;99.90;;;;;;4936680;28;20618;-62
2023/10/07 10:56:10;;;;;;;15.13;4.90;;;19.00;99.90;;;;;;4921629;28;20050;-62
2023/10/07 10:58:36;;;;;;;18.35;4.78;;;19.00;99.90;;;;;;4945721;28;20050;-62
2023/10/07 11:01:05;;;;;;;16.38;4.60;;;19.00;99.90;;;;;;4945215;28;20111;-62
2023/10/07 11:03:31;;;;;;;15.02;5.00;;;18.90;99.90;;;;;;4937025;28;20468;-62
2023/10/07 11:05:57;;;;;;;14.50;4.13;;;18.90;99.90;;;;;;4958911;28;20043;-61
2023/10/07 11:08:28;;;;;;;11.55;4.07;;;18.90;99.90;;;;;;4954584;28;20387;-62
2023/10/07 11:10:55;;;;;;;14.68;4.70;;;18.80;99.90;;;;;;4940481;28;20035;-60
2023/10/07 11:13:23;;;;;;;14.85;4.97;;;18.80;99.90;;;;;;4906424;28;20098;-63
2023/10/07 11:16:09;;;;;;;14.90;5.00;;;18.80;99.90;;;;;;4901887;28;20511;-63
2023/10/07 11:18:41;;;;;;;12.32;4.68;;;18.80;99.90;;;;;;4929379;28;20050;-62
2023/10/07 11:21:21;;;;;;;15.95;5.07;;;18.80;99.90;;;;;;4923158;28;20122;-63
2023/10/07 11:23:54;;;;;;;17.95;4.70;;;18.80;99.90;;;;;;4941831;28;20039;-63
2023/10/07 11:26:27;;;;;;;14.30;4.47;;;18.80;99.90;;;;;;4928955;28;20082;-63
2023/10/07 11:28:56;;;;;;;20.02;4.88;;;18.80;99.90;;;;;;4916773;28;20039;-63
2023/10/07 11:31:31;;;;;;;16.70;4.60;;;18.80;99.90;;;;;;4934600;28;20118;-63
2023/10/07 11:33:57;;;;;;;19.08;4.95;;;18.80;99.90;;;;;;4933665;28;20046;-63
2023/10/07 11:36:23;;;;;;;15.85;3.97;;;18.80;99.90;;;;;;4939982;28;20483;-63
2023/10/07 11:38:50;;;;;;;12.25;4.60;;;18.70;99.90;;;;;;4939341;28;20047;-63
2023/10/07 11:41:16;;;;;;;16.88;4.32;;;18.70;99.90;;;;;;4942649;28;20058;-63
2023/10/07 11:43:49;;;;;;;12.25;4.68;;;18.70;99.90;;;;;;4922870;29;20047;-63
2023/10/07 11:46:15;;;;;;;;;;;18.70;99.90;;;;;;4956764;28;20058;-63
2023/10/07 11:48:44;;;;;;;14.63;4.30;;;18.80;99.90;;;;;;4922265;29;19992;-63
2023/10/07 11:51:11;;;;;;;15.18;4.35;;;18.80;99.90;;;;;;4941488;28;20507;-66
2023/10/07 11:53:40;;;;;;;20.25;5.03;;;18.90;99.90;;;;;;4953979;28;20051;-63
2023/10/07 11:56:11;;;;;;;15.50;4.13;;;18.90;99.90;;;;;;4937444;28;20081;-61
2023/10/07 11:58:38;;;;;;;14.10;4.28;;;18.90;99.90;;;;;;4943066;28;20774;-63
2023/10/07 12:01:04;;;;;;;18.90;5.00;;;18.90;99.90;;;;;;4908506;29;20083;-62
2023/10/07 12:03:32;;;;;;;15.75;4.70;;;18.90;99.90;;;;;;4938541;29;20035;-62
2023/10/07 12:05:58;;;;;;;17.40;4.82;;;18.80;99.90;;;;;;4921646;28;20047;-62
2023/10/07 12:08:25;;;;;;;13.45;4.65;;;18.80;99.90;;;;;;4938796;28;20086;-61
2023/10/07 12:10:51;;;;;;;12.50;3.83;;;18.70;99.90;;;;;;4929668;28;20093;-61
2023/10/07 12:13:19;;;;;;;17.95;4.72;;;18.70;99.90;;;;;;4933714;28;20043;-62
2023/10/07 12:15:45;;;;;;;16.17;4.72;;;18.70;99.90;;;;;;4918622;28;20051;-62
2023/10/07 12:18:12;;;;;;;15.05;4.50;;;18.70;99.90;;;;;;4921970;28;20121;-62
2023/10/07 12:20:39;;;;;;;18.38;4.50;;;18.70;99.90;;;;;;4940629;28;20042;-61
2023/10/07 12:23:06;;;;;;;14.30;4.72;;;18.60;99.90;;;;;;4907153;29;20051;-56
2023/10/07 12:25:41;;;;;;;13.48;4.47;;;18.60;99.90;;;;;;5117001;27;20123;-55
2023/10/07 12:28:08;;;;;;;15.60;4.30;;;18.70;99.90;;;;;;5096543;28;20043;-56
2023/10/07 12:30:34;;;;;;;22.55;4.97;;;18.70;99.90;;;;;;5112860;28;20043;-55
2023/10/07 12:33:02;;;;;;;13.10;4.38;;;18.70;99.90;;;;;;5114573;28;20031;-61
2023/10/07 12:35:34;;;;;;;21.52;5.38;;;18.70;99.90;;;;;;5085986;28;20055;-61
2023/10/07 12:38:00;;;;;;;;;;;18.70;99.90;;;;;;5111704;28;20043;-61
2023/10/07 12:40:28;;;;;;;16.60;4.90;;;18.80;99.90;;;;;;5098989;28;19924;-60
2023/10/07 12:42:56;;;;;;;25.33;5.78;;;18.80;99.90;;;;;;5110851;28;20044;-60
2023/10/07 12:45:22;;;;;;;18.45;4.43;;;18.80;99.90;;;;;;5092188;28;20051;-60
2023/10/07 12:47:51;;;;;;;16.50;4.88;;;18.90;99.90;;;;;;5112081;28;20271;-60
2023/10/07 12:50:23;;;;;;;22.25;4.68;;;18.90;99.90;;;;;;5113854;28;20494;-59
2023/10/07 12:52:53;;;;;;;;;;;18.90;99.90;;;;;;5099632;28;20089;-60
2023/10/07 12:55:19;;;;;;;15.70;4.60;;;18.90;99.90;;;;;;5107398;28;21826;-59
2023/10/07 12:57:49;;;;;;;15.90;4.32;;;18.80;99.90;;;;;;5091838;28;20051;-60
2023/10/07 13:00:51;;;;;;;21.38;5.57;;;18.80;99.90;;;;;;5095303;28;20527;-59
2023/10/07 13:03:07;;;;;;;20.75;5.47;;;18.80;99.90;;;;;;5092285;28;20062;-58
2023/10/07 13:05:37;;;;;;;16.15;4.65;;;18.70;99.90;;;;;;5083675;28;20510;-57
2023/10/07 13:08:11;;;;;;;12.75;4.43;;;18.70;99.90;;;;;;5082456;28;20831;-59
2023/10/07 13:10:38;;;;;;;17.38;4.40;;;18.70;99.90;;;;;;5105896;28;20540;-59
2023/10/07 13:13:04;;;;;;;13.15;4.50;;;18.60;99.90;;;;;;5115249;28;20069;-59
2023/10/07 13:15:30;;;;;;;17.10;4.80;;;18.60;99.90;;;;;;5110420;28;20066;-60
2023/10/07 13:18:01;;;;;;;19.42;5.18;;;18.60;99.90;;;;;;5101044;28;20440;-58
2023/10/07 13:20:27;;;;;;;14.50;4.75;;;18.50;99.90;;;;;;5114849;28;20047;-58
2023/10/07 13:22:57;;;;;;;15.18;4.68;;;18.50;99.90;;;;;;5110869;28;20160;-60
2023/10/07 13:25:24;;;;;;;14.80;4.53;;;18.50;99.90;;;;;;5112836;28;20047;-60
2023/10/07 13:27:50;;;;;;;13.60;4.72;;;18.40;99.90;;;;;;5106358;28;20067;-59
2023/10/07 13:30:17;;;;;;;17.40;4.38;;;18.40;99.90;;;;;;5106064;28;20155;-60
2023/10/07 13:32:44;;;;;;;14.70;4.95;;;18.40;99.90;;;;;;5112945;28;20100;-60
2023/10/07 13:35:18;;;;;;;18.05;4.90;;;18.40;99.90;;;;;;5111410;28;20032;-60
2023/10/07 13:37:49;;;;;;;14.98;4.80;;;18.40;99.90;;;;;;5092882;28;20051;-60
2023/10/07 13:40:16;;;;;;;13.23;4.40;;;18.30;99.90;;;;;;5087380;28;20097;-59